Manzanita, Oregon
Current Conditions -  °F | °C
As of 4:15 AM on Friday 19 Dec 2014 (Local Time) from KTMK Reporting Station
Light Rain Light Rain  
Wind Chill: 44°   Ceiling: 3500
Heat Index: 46°   Visibility: 10mi
Dew Point: 45°   Wind: 5mph
Humidity: 93%   Direction: 150°SSE
Pressure: 29.89"   Gusts: NA
Location:  45.72°N, 123.94°W
Report Text: KTMK 191215Z AUTO 15004KT 10SM -RA SCT028 BKN035 BKN100 08/07 A2989 RMK AO2
Loading
Personal Weather Stations






























Interactive Weather Map New forecast layout! Learn more

10-Day Weather Forecast

Advertisements
Track Severe Weather on mobile